Time;durP1;ratioP1;P1;durP2;ratioP2;P2;SDS_P1;SDS_P2;PMS_P1;PMS_P2;Temp;Humidity;BMP_temperature;BMP_pressure;BME280_temperature;BME280_humidity;BME280_pressure;Samples;Min_cycle;Max_cycle;Signal;HPM_P1;HPM_P2
2023/08/15 00:00:12;;;;;;;3.80;2.60;;;;;;;15.87;75.55;99868.51;106551;1275;99759;-69
2023/08/15 00:03:00;;;;;;;3.70;2.40;;;;;;;15.88;75.51;99870.66;106395;1275;25418;-70
2023/08/15 00:05:30;;;;;;;3.50;2.60;;;;;;;15.92;75.61;99872.23;106468;1275;99694;-69
2023/08/15 00:07:59;;;;;;;4.40;2.50;;;;;;;15.95;75.73;99874.45;106480;1272;22529;-68
2023/08/15 00:10:28;;;;;;;4.80;3.30;;;;;;;15.98;75.63;99868.98;106658;1272;24205;-68
2023/08/15 00:12:57;;;;;;;5.10;3.00;;;;;;;15.99;75.70;99866.11;106679;1275;22644;-70
2023/08/15 00:15:25;;;;;;;6.20;3.50;;;;;;;15.98;75.59;99865.13;106586;1274;22541;-70
2023/08/15 00:17:54;;;;;;;7.80;4.40;;;;;;;15.96;75.69;99866.33;106460;1274;99248;-69
2023/08/15 00:20:23;;;;;;;5.60;3.90;;;;;;;15.94;75.73;99865.27;106418;1274;24271;-70
2023/08/15 00:22:51;;;;;;;8.00;3.80;;;;;;;15.89;75.88;99860.08;106417;1276;101333;-69
2023/08/15 00:25:26;;;;;;;7.40;3.40;;;;;;;15.85;76.02;99858.79;106364;1272;22522;-70
2023/08/15 00:27:54;;;;;;;5.20;3.50;;;;;;;15.82;76.27;99855.31;106566;1274;23836;-70
2023/08/15 00:30:23;;;;;;;5.40;3.70;;;;;;;15.83;76.63;99854.70;106292;1275;100181;-70
2023/08/15 00:32:51;;;;;;;3.80;3.10;;;;;;;15.87;76.70;99858.08;106268;1274;24360;-69
2023/08/15 00:35:21;;;;;;;4.00;3.50;;;;;;;15.93;76.82;99857.44;106316;1274;99635;-70
2023/08/15 00:37:49;;;;;;;5.30;3.70;;;;;;;15.93;76.78;99859.14;106416;1272;25224;-70
2023/08/15 00:40:18;;;;;;;7.00;3.50;;;;;;;15.92;76.95;99856.04;106389;1275;24431;-70
2023/08/15 00:42:47;;;;;;;4.80;2.90;;;;;;;15.88;76.72;99857.14;106614;1272;98996;-70
2023/08/15 00:45:15;;;;;;;4.90;3.20;;;;;;;15.85;76.63;99857.39;106250;1275;23522;-71
2023/08/15 00:47:44;;;;;;;4.80;3.00;;;;;;;15.81;76.92;99852.17;106232;1271;99521;-70
2023/08/15 00:50:13;;;;;;;4.90;2.60;;;;;;;15.79;77.01;99854.25;106419;1271;22855;-70
2023/08/15 00:52:42;;;;;;;7.10;2.80;;;;;;;15.77;77.35;99852.98;106503;1272;99402;-69
2023/08/15 00:55:11;;;;;;;9.90;2.70;;;;;;;15.75;77.50;99855.23;110173;1272;23045;-70
2023/08/15 00:57:40;;;;;;;4.10;2.60;;;;;;;15.72;77.81;99853.14;107593;1273;22528;-70
2023/08/15 01:00:11;;;;;;;5.50;3.10;;;;;;;15.72;77.96;99851.20;109974;1272;99869;-70
2023/08/15 01:02:42;;;;;;;3.60;2.80;;;;;;;15.75;78.02;99847.02;108308;1273;22565;-69
2023/08/15 01:05:16;;;;;;;3.60;2.80;;;;;;;15.74;78.03;99844.95;106832;1276;99569;-69
2023/08/15 01:07:44;;;;;;;4.50;3.20;;;;;;;15.73;78.24;99840.61;106503;1272;23009;-70
2023/08/15 01:10:13;;;;;;;2.90;2.40;;;;;;;15.75;78.39;99834.00;106550;1273;22636;-71
2023/08/15 01:13:09;;;;;;;4.60;3.10;;;;;;;15.75;78.32;99836.46;106479;1272;99361;-70
2023/08/15 01:15:46;;;;;;;4.00;2.80;;;;;;;15.74;78.41;99833.90;106722;1274;22999;-71
2023/08/15 01:18:35;;;;;;;4.90;3.00;;;;;;;15.77;78.69;99830.76;106404;1274;99539;-71
2023/08/15 01:21:07;;;;;;;5.20;3.00;;;;;;;15.82;78.75;99832.34;106397;1275;25281;-71
2023/08/15 01:23:43;;;;;;;5.10;2.60;;;;;;;15.84;78.79;99833.53;106488;1273;99786;-71
2023/08/15 01:26:12;;;;;;;4.70;2.60;;;;;;;15.84;78.69;99829.73;106745;1272;27537;-71
2023/08/15 01:28:40;;;;;;;3.50;2.20;;;;;;;15.83;78.39;99827.83;106679;1272;99440;-71
2023/08/15 01:31:28;;;;;;;2.50;2.20;;;;;;;15.80;78.20;99828.02;106517;1268;24388;-71
2023/08/15 01:34:28;;;;;;;4.50;2.60;;;;;;;15.77;78.33;99828.96;106689;1275;24254;-71
2023/08/15 01:37:30;;;;;;;2.90;2.40;;;;;;;15.74;78.40;99826.89;106552;1273;22545;-70
2023/08/15 01:40:02;;;;;;;4.10;2.50;;;;;;;15.72;78.82;99830.30;106479;1273;22530;-70
2023/08/15 01:42:32;;;;;;;3.50;2.60;;;;;;;15.74;79.08;99830.77;106264;1272;99867;-71
2023/08/15 01:45:02;;;;;;;3.60;2.50;;;;;;;15.80;78.92;99827.88;106480;1271;24049;-71
2023/08/15 01:47:43;;;;;;;3.10;2.50;;;;;;;15.83;79.23;99832.06;106533;1273;99483;-72
2023/08/15 01:50:15;;;;;;;5.50;2.70;;;;;;;15.86;79.35;99831.52;106708;1275;24384;-71
2023/08/15 01:52:56;;;;;;;7.70;3.60;;;;;;;15.93;79.54;99828.77;106571;1274;99468;-71
2023/08/15 01:55:27;;;;;;;3.30;2.60;;;;;;;15.99;79.80;99825.04;106835;1272;22527;-71
2023/08/15 01:57:56;;;;;;;3.20;2.30;;;;;;;16.02;79.80;99819.18;106511;1276;23910;-72
2023/08/15 02:00:25;;;;;;;2.60;1.90;;;;;;;16.03;79.82;99815.44;106438;1272;99935;-71
2023/08/15 02:02:54;;;;;;;5.40;3.10;;;;;;;16.05;79.76;99814.95;106866;1279;22661;-70
2023/08/15 02:05:23;;;;;;;4.60;3.50;;;;;;;16.11;79.84;99814.02;106618;1272;99725;-71
2023/08/15 02:07:51;;;;;;;4.00;2.90;;;;;;;16.19;80.12;99813.66;106428;1273;22550;-71
2023/08/15 02:10:20;;;;;;;3.90;2.90;;;;;;;16.27;80.09;99815.87;106564;1276;22687;-70
2023/08/15 02:12:49;;;;;;;4.50;2.90;;;;;;;16.32;80.02;99817.98;106453;1272;99811;-70
2023/08/15 02:15:19;;;;;;;5.50;2.90;;;;;;;16.36;80.13;99819.71;106371;1275;22545;-71
2023/08/15 02:17:48;;;;;;;4.90;2.80;;;;;;;16.42;80.32;99825.80;106548;1275;99266;-70
2023/08/15 02:20:17;;;;;;;5.10;3.50;;;;;;;16.51;80.39;99826.89;106616;1275;25265;-70
2023/08/15 02:22:45;;;;;;;3.90;2.80;;;;;;;16.60;80.49;99831.66;106288;1274;99935;-71
2023/08/15 02:25:14;;;;;;;6.70;4.00;;;;;;;16.63;80.73;99838.86;106473;1279;27963;-70
2023/08/15 02:27:43;;;;;;;6.20;3.00;;;;;;;16.64;81.11;99835.13;106209;1272;22530;-71
2023/08/15 02:30:12;;;;;;;6.60;4.40;;;;;;;16.68;80.94;99839.00;106488;1272;99687;-71
2023/08/15 02:32:43;;;;;;;5.10;3.40;;;;;;;16.68;80.90;99841.52;106817;1272;24455;-71
2023/08/15 02:35:13;;;;;;;4.70;3.20;;;;;;;16.69;81.15;99841.94;106755;1278;99671;-71
2023/08/15 02:37:41;;;;;;;4.50;2.90;;;;;;;16.75;81.12;99844.52;106721;1273;22581;-71
2023/08/15 02:40:10;;;;;;;8.70;4.40;;;;;;;16.87;81.27;99848.30;106565;1273;25261;-69
2023/08/15 02:42:39;;;;;;;6.40;4.40;;;;;;;16.98;81.31;99841.88;106460;1264;99906;-71
2023/08/15 02:45:08;;;;;;;8.60;4.70;;;;;;;17.04;81.21;99838.40;106627;1275;25082;-71
2023/08/15 02:47:40;;;;;;;4.30;3.30;;;;;;;17.11;81.20;99837.23;106341;1275;99265;-72
2023/08/15 02:50:12;;;;;;;4.50;3.20;;;;;;;17.14;80.90;99835.23;106552;1272;25529;-72
2023/08/15 02:52:41;;;;;;;8.60;4.10;;;;;;;17.13;80.68;99834.61;106626;1273;99930;-71
2023/08/15 02:55:09;;;;;;;5.90;4.30;;;;;;;17.11;80.69;99833.36;106742;1274;22531;-71
2023/08/15 02:57:38;;;;;;;7.00;3.90;;;;;;;17.07;80.91;99823.23;106455;1270;25426;-70
2023/08/15 03:00:08;;;;;;;5.20;3.40;;;;;;;17.07;81.09;99816.23;106563;1273;100216;-71
2023/08/15 03:02:36;;;;;;;4.00;3.30;;;;;;;17.07;80.97;99815.37;106553;1274;24123;-71
2023/08/15 03:05:09;;;;;;;3.80;2.50;;;;;;;17.10;81.07;99815.66;106350;1276;99430;-71
2023/08/15 03:07:37;;;;;;;4.30;3.60;;;;;;;17.14;80.97;99812.91;106487;1273;25227;-71
2023/08/15 03:10:06;;;;;;;5.40;3.50;;;;;;;17.13;80.76;99806.98;106606;1275;22915;-71
2023/08/15 03:12:35;;;;;;;9.80;4.20;;;;;;;17.09;80.59;99798.86;106539;1272;99237;-71
2023/08/15 03:15:04;;;;;;;4.30;2.70;;;;;;;17.03;80.80;99799.77;106685;1272;25379;-71
2023/08/15 03:17:34;;;;;;;4.80;2.60;;;;;;;16.97;80.59;99804.30;106443;1273;99280;-70
2023/08/15 03:20:04;;;;;;;3.80;2.60;;;;;;;16.91;80.81;99800.32;107999;1273;22657;-70
2023/08/15 03:22:32;;;;;;;5.40;2.30;;;;;;;16.87;80.96;99792.88;106570;1275;22534;-71
2023/08/15 03:25:04;;;;;;;3.40;2.40;;;;;;;16.86;81.23;99794.02;106439;1272;22533;-70
2023/08/15 03:27:32;;;;;;;2.10;1.90;;;;;;;16.87;81.08;99797.84;106687;1275;26563;-71
2023/08/15 03:30:01;;;;;;;3.80;2.10;;;;;;;16.86;81.40;99794.73;106388;1275;99805;-71
2023/08/15 03:32:30;;;;;;;2.60;1.90;;;;;;;16.88;81.47;99799.36;106459;1272;25354;-71
2023/08/15 03:34:59;;;;;;;2.70;2.30;;;;;;;16.91;81.72;99797.39;106617;1273;99939;-71
2023/08/15 03:37:28;;;;;;;2.60;2.10;;;;;;;16.94;81.78;99797.98;106446;1279;24859;-70
2023/08/15 03:39:58;;;;;;;1.90;1.70;;;;;;;16.97;81.89;99789.13;106610;1278;23301;-71
2023/08/15 03:42:30;;;;;;;2.60;1.80;;;;;;;17.02;82.00;99787.42;106675;1271;99443;-71
2023/08/15 03:44:58;;;;;;;3.50;2.50;;;;;;;17.06;82.01;99781.81;106395;1272;25271;-71
2023/08/15 03:47:27;;;;;;;4.10;2.40;;;;;;;17.11;82.09;99783.39;106585;1276;99541;-70
2023/08/15 03:49:59;;;;;;;2.60;2.30;;;;;;;17.18;82.16;99780.91;106611;1274;25306;-71
2023/08/15 03:52:29;;;;;;;3.10;2.60;;;;;;;17.25;82.22;99781.30;106537;1273;24234;-71
2023/08/15 03:54:57;;;;;;;3.60;2.00;;;;;;;17.30;82.09;99780.07;106727;1274;99336;-70
2023/08/15 03:57:32;;;;;;;5.20;2.40;;;;;;;17.33;82.02;99777.04;106562;1274;22633;-71
2023/08/15 04:00:01;;;;;;;2.90;1.80;;;;;;;17.36;82.05;99781.94;106451;1273;99640;-72
2023/08/15 04:02:32;;;;;;;2.90;2.20;;;;;;;17.41;82.14;99779.96;106622;1275;22647;-70
2023/08/15 04:05:04;;;;;;;3.50;2.20;;;;;;;17.48;82.20;99776.95;106594;1275;99902;-71
2023/08/15 04:07:33;;;;;;;3.00;1.60;;;;;;;17.56;82.08;99777.08;107075;1265;24266;-71
2023/08/15 04:10:02;;;;;;;2.50;1.90;;;;;;;17.65;82.03;99769.86;106588;1265;25255;-71
2023/08/15 04:12:34;;;;;;;2.20;1.40;;;;;;;17.76;82.14;99769.38;106397;1274;99777;-72
2023/08/15 04:15:03;;;;;;;2.00;1.40;;;;;;;17.92;82.10;99770.10;106495;1273;22530;-72
2023/08/15 04:17:38;;;;;;;2.20;1.60;;;;;;;18.09;81.96;99772.02;106875;1274;99303;-71
2023/08/15 04:20:15;;;;;;;1.80;1.60;;;;;;;18.23;81.97;99773.04;106670;1276;25356;-71
2023/08/15 04:22:46;;;;;;;3.50;1.70;;;;;;;18.35;81.81;99776.45;106637;1270;24976;-70
2023/08/15 04:25:15;;;;;;;2.60;1.60;;;;;;;18.49;81.85;99770.45;106677;1272;25281;-72
2023/08/15 04:27:49;;;;;;;2.50;1.90;;;;;;;18.64;81.82;99774.36;106431;1272;22514;-71
2023/08/15 04:30:18;;;;;;;1.90;1.30;;;;;;;18.79;81.75;99775.45;106522;1274;99995;-71
2023/08/15 04:32:48;;;;;;;4.90;1.50;;;;;;;18.92;81.59;99779.99;106649;1272;22539;-71
2023/08/15 04:35:20;;;;;;;2.50;1.40;;;;;;;19.07;81.56;99780.27;106438;1267;99997;-71
2023/08/15 04:37:56;;;;;;;2.10;1.50;;;;;;;19.21;81.42;99779.81;106584;1275;22530;-70
2023/08/15 04:40:40;;;;;;;1.30;1.00;;;;;;;19.36;81.43;99783.13;106601;1277;25460;-71
2023/08/15 04:43:12;;;;;;;1.80;1.40;;;;;;;19.53;81.31;99785.09;106790;1273;98986;-71
2023/08/15 04:45:43;;;;;;;2.40;1.90;;;;;;;19.68;81.16;99788.81;106785;1272;22854;-71
2023/08/15 04:48:13;;;;;;;1.70;1.50;;;;;;;19.82;81.03;99795.36;106669;1273;99914;-70
2023/08/15 04:50:41;;;;;;;3.90;2.00;;;;;;;19.97;81.01;99796.09;106869;1273;25303;-70
2023/08/15 04:53:10;;;;;;;2.70;1.50;;;;;;;20.13;80.81;99796.70;106681;1272;99535;-70
2023/08/15 04:55:38;;;;;;;2.40;1.80;;;;;;;20.25;80.73;99795.92;106595;1273;25419;-71
2023/08/15 04:58:09;;;;;;;3.30;1.50;;;;;;;20.40;80.72;99794.02;106675;1273;25416;-71
2023/08/15 05:00:38;;;;;;;3.10;1.90;;;;;;;20.56;80.68;99799.81;106405;1273;99852;-71
2023/08/15 05:03:07;;;;;;;2.70;1.20;;;;;;;20.75;80.49;99794.83;106640;1276;22566;-71
2023/08/15 05:05:35;;;;;;;1.10;1.00;;;;;;;20.97;80.48;99792.52;106549;1273;100448;-72
2023/08/15 05:08:06;;;;;;;1.90;1.30;;;;;;;21.20;80.22;99793.77;106927;1273;24254;-72
2023/08/15 05:10:35;;;;;;;1.40;1.20;;;;;;;21.46;80.02;99789.02;106406;1273;22724;-72
2023/08/15 05:13:03;;;;;;;1.80;1.10;;;;;;;21.68;79.82;99787.44;106585;1272;101540;-71
2023/08/15 05:15:32;;;;;;;3.00;1.40;;;;;;;21.93;79.65;99785.73;106596;1272;22586;-73
2023/08/15 05:18:01;;;;;;;1.60;1.30;;;;;;;22.17;79.30;99785.27;106432;1274;99563;-72
2023/08/15 05:20:31;;;;;;;3.40;1.20;;;;;;;22.41;79.07;99788.86;106604;1260;26360;-70
2023/08/15 05:22:59;;;;;;;1.80;1.00;;;;;;;22.63;78.84;99786.16;106701;1272;100101;-71
2023/08/15 05:25:28;;;;;;;2.10;1.70;;;;;;;22.84;78.47;99790.83;106648;1276;22539;-73
2023/08/15 05:28:02;;;;;;;1.40;1.10;;;;;;;23.06;78.11;99796.41;106685;1272;22557;-72
2023/08/15 05:30:33;;;;;;;1.60;1.20;;;;;;;23.26;77.72;99796.67;106290;1271;99892;-71
2023/08/15 05:33:06;;;;;;;2.30;1.10;;;;;;;23.43;77.51;99792.00;106544;1267;22583;-72
2023/08/15 05:35:36;;;;;;;2.40;1.30;;;;;;;23.57;77.20;99793.14;106502;1274;99313;-72
2023/08/15 05:38:05;;;;;;;2.30;1.30;;;;;;;23.69;76.67;99797.15;106402;1273;25419;-73
2023/08/15 05:40:33;;;;;;;1.50;1.40;;;;;;;23.85;76.47;99790.42;106334;1273;22538;-73
2023/08/15 05:43:02;;;;;;;2.30;1.30;;;;;;;24.03;75.91;99784.52;106871;1272;99803;-72
2023/08/15 05:45:31;;;;;;;1.80;1.10;;;;;;;24.20;75.53;99784.87;108650;1274;22688;-71
2023/08/15 05:47:59;;;;;;;1.30;1.20;;;;;;;24.39;75.18;99787.16;106736;1276;99796;-72
2023/08/15 05:50:28;;;;;;;1.60;1.10;;;;;;;24.56;74.70;99782.23;106521;1273;25375;-72
2023/08/15 05:53:00;;;;;;;1.80;1.20;;;;;;;24.73;74.25;99776.67;106410;1272;99485;-72
2023/08/15 05:55:38;;;;;;;2.20;1.60;;;;;;;24.88;73.52;99774.41;106889;1273;25258;-74
2023/08/15 05:58:07;;;;;;;2.60;1.30;;;;;;;24.94;73.26;99775.89;106606;1273;22535;-74
2023/08/15 06:00:37;;;;;;;2.10;1.40;;;;;;;25.04;72.75;99777.48;106445;1273;99784;-73
2023/08/15 06:03:06;;;;;;;1.50;1.10;;;;;;;25.18;72.27;99779.91;106487;1273;24248;-74
2023/08/15 06:05:35;;;;;;;3.10;1.50;;;;;;;25.39;71.95;99778.98;106220;1267;331281;-75
2023/08/15 06:08:04;;;;;;;2.40;1.20;;;;;;;25.49;71.15;99779.08;106763;1273;25502;-74
2023/08/15 06:10:33;;;;;;;1.50;1.40;;;;;;;25.53;70.39;99777.25;106721;1276;24036;-72
2023/08/15 06:13:02;;;;;;;1.30;1.10;;;;;;;25.55;69.72;99777.75;106309;1275;99523;-72
2023/08/15 06:15:40;;;;;;;1.40;1.30;;;;;;;25.60;68.94;99775.77;106342;1274;24228;-77
2023/08/15 06:18:08;;;;;;;2.70;1.50;;;;;;;25.66;68.38;99770.59;106423;1260;99339;-71
2023/08/15 06:20:37;;;;;;;3.60;1.90;;;;;;;25.76;67.70;99769.04;106570;1273;22517;-73
2023/08/15 06:23:06;;;;;;;3.20;1.90;;;;;;;25.89;67.16;99772.59;107638;1272;99876;-67
2023/08/15 06:25:48;;;;;;;1.30;1.10;;;;;;;26.01;66.22;99781.60;106522;1272;24242;-70
2023/08/15 06:28:18;;;;;;;2.70;1.10;;;;;;;26.13;65.43;99781.83;106444;1274;25405;-64
2023/08/15 06:30:47;;;;;;;1.90;1.40;;;;;;;26.27;64.62;99785.17;106574;1273;101255;-76
2023/08/15 06:33:15;;;;;;;2.60;1.00;;;;;;;26.46;63.58;99782.23;107002;1273;25290;-72
2023/08/15 06:35:44;;;;;;;3.50;1.10;;;;;;;26.61;62.61;99777.56;106485;1273;99251;-73
2023/08/15 06:38:12;;;;;;;2.00;1.30;;;;;;;26.71;61.87;99779.05;106414;1272;24544;-72
2023/08/15 06:40:41;;;;;;;2.20;1.40;;;;;;;26.77;60.94;99774.27;106395;1273;22527;-72
2023/08/15 06:43:09;;;;;;;1.50;1.00;;;;;;;26.87;60.06;99772.73;106474;1257;99654;-76
2023/08/15 06:45:38;;;;;;;2.50;1.50;;;;;;;27.05;59.50;99772.39;106419;1272;26219;-73
2023/08/15 06:48:06;;;;;;;2.70;1.40;;;;;;;27.24;58.99;99765.18;106656;1272;100336;-73
2023/08/15 06:50:35;;;;;;;2.10;1.20;;;;;;;27.43;58.53;99764.39;106400;1272;25647;-73
2023/08/15 06:53:03;;;;;;;3.10;1.40;;;;;;;27.56;57.70;99766.42;106198;1273;101366;-74
2023/08/15 06:55:32;;;;;;;2.10;1.40;;;;;;;27.74;57.19;99772.63;106368;1272;26188;-74
2023/08/15 06:58:01;;;;;;;2.30;1.60;;;;;;;27.87;56.42;99772.97;106751;1273;25331;-72
2023/08/15 07:00:29;;;;;;;2.10;1.40;;;;;;;28.03;55.63;99768.88;106205;1264;99732;-73
2023/08/15 07:02:58;;;;;;;2.00;1.20;;;;;;;28.25;55.39;99773.69;106433;1272;22554;-72
2023/08/15 07:05:31;;;;;;;4.70;1.70;;;;;;;28.48;54.68;99768.98;107766;1272;99499;-71
2023/08/15 07:08:07;;;;;;;3.40;1.70;;;;;;;28.61;53.61;99767.60;106341;1272;25246;-72
2023/08/15 07:10:36;;;;;;;1.60;1.00;;;;;;;28.71;52.75;99768.18;106597;1273;25237;-72
2023/08/15 07:13:05;;;;;;;3.30;1.80;;;;;;;28.92;51.89;99760.67;106508;1261;99242;-64
2023/08/15 07:15:34;;;;;;;5.40;1.40;;;;;;;29.22;51.27;99757.67;106702;1272;25347;-71
2023/08/15 07:18:05;;;;;;;1.50;1.20;;;;;;;29.51;50.03;99749.05;106554;1273;99348;-69
2023/08/15 07:20:39;;;;;;;2.30;1.60;;;;;;;29.77;49.46;99749.77;107272;1271;22639;-74
2023/08/15 07:23:32;;;;;;;;;;;;;;;;;;;;;
2023/08/15 07:26:03;;;;;;;3.00;1.60;;;;;;;30.44;47.54;99751.42;106595;1275;22672;-76
2023/08/15 07:28:52;;;;;;;1.20;1.10;;;;;;;30.79;46.60;99746.49;107042;1270;24274;-75
2023/08/15 07:31:25;;;;;;;1.70;1.10;;;;;;;31.06;45.87;99740.74;106390;1279;22655;-69
2023/08/15 07:33:54;;;;;;;1.70;1.20;;;;;;;31.18;45.21;99742.59;106521;1273;24052;-74
2023/08/15 07:36:23;;;;;;;1.60;1.10;;;;;;;31.31;44.67;99739.96;106457;1272;99821;-70
2023/08/15 07:38:56;;;;;;;2.50;1.20;;;;;;;31.51;43.79;99737.52;106454;1270;22920;-70
2023/08/15 07:41:24;;;;;;;1.70;1.10;;;;;;;31.94;42.84;99739.55;106574;1273;99962;-70
2023/08/15 07:43:56;;;;;;;5.00;1.80;;;;;;;32.43;41.92;99736.09;106654;1273;22607;-69
2023/08/15 07:46:25;;;;;;;1.60;1.20;;;;;;;32.50;40.57;99727.77;106566;1266;26500;-69
2023/08/15 07:49:02;;;;;;;2.10;1.10;;;;;;;32.60;40.50;99731.21;106694;1272;99744;-73
2023/08/15 07:51:48;;;;;;;4.40;1.20;;;;;;;32.87;39.51;99728.02;106412;1273;25370;-71
2023/08/15 07:54:17;;;;;;;3.80;1.40;;;;;;;32.85;38.56;99724.33;106703;1272;99386;-69
2023/08/15 07:56:51;;;;;;;2.10;1.10;;;;;;;32.88;38.64;99720.48;108776;1272;25112;-71
2023/08/15 07:59:20;;;;;;;1.90;1.20;;;;;;;33.62;38.64;99721.38;107036;1272;99473;-75
2023/08/15 08:01:49;;;;;;;6.00;1.10;;;;;;;34.91;38.42;99720.23;106726;1267;25236;-67
2023/08/15 08:04:35;;;;;;;1.40;1.10;;;;;;;36.21;38.14;99718.11;107184;1272;24225;-68
2023/08/15 08:07:05;;;;;;;2.80;1.30;;;;;;;36.73;35.97;99727.83;106326;1269;99738;-70
2023/08/15 08:09:56;;;;;;;1.50;0.90;;;;;;;36.03;35.61;99733.31;107008;1273;22602;-71
2023/08/15 08:15:23;;;;;;;2.30;1.00;;;;;;;38.38;34.88;99729.35;106803;1272;23651;-70
2023/08/15 08:17:55;;;;;;;1.70;1.20;;;;;;;38.15;34.14;99727.77;110005;1273;99604;-71
2023/08/15 08:20:29;;;;;;;2.20;1.20;;;;;;;38.78;34.21;99728.76;106948;1278;25250;-70
2023/08/15 08:22:59;;;;;;;1.40;0.90;;;;;;;39.66;33.47;99726.95;106840;1272;99508;-74
2023/08/15 08:25:56;;;;;;;1.70;1.20;;;;;;;40.44;33.11;99720.92;106746;1274;22535;-68
2023/08/15 08:28:41;;;;;;;1.20;1.00;;;;;;;41.28;32.39;99717.66;107829;1272;22538;-78
2023/08/15 08:31:13;;;;;;;4.20;1.30;;;;;;;41.84;31.46;99715.16;106579;1274;99046;-69
2023/08/15 08:33:43;;;;;;;2.90;1.40;;;;;;;41.76;30.97;99703.19;106387;1273;22527;-68
2023/08/15 08:36:13;;;;;;;6.20;1.30;;;;;;;42.26;30.54;99703.15;107024;1274;99334;-80
2023/08/15 08:38:47;;;;;;;2.10;1.00;;;;;;;42.14;30.24;99699.54;106820;1271;23797;-76
2023/08/15 08:41:47;;;;;;;2.00;1.30;;;;;;;41.43;29.94;99700.52;106934;1272;99451;-78
2023/08/15 08:44:41;;;;;;;;;;;;;;;;;;;;;
2023/08/15 08:47:58;;;;;;;2.70;1.80;;;;;;;40.98;30.61;99683.38;107343;1273;99968;-71
2023/08/15 08:51:05;;;;;;;2.40;1.40;;;;;;;41.88;29.58;99682.46;106946;1273;25303;-70
2023/08/15 08:53:35;;;;;;;1.40;1.00;;;;;;;42.45;29.68;99676.54;106536;1275;99446;-71
2023/08/15 08:56:28;;;;;;;1.90;1.40;;;;;;;44.15;29.87;99681.96;106607;1272;22666;-78
2023/08/15 08:59:05;;;;;;;;;;;;;;;45.61;28.48;99672.63;106945;1272;99561;-68
2023/08/15 09:01:42;;;;;;;1.50;1.30;;;;;;;46.32;27.93;99672.86;107145;1272;22649;-73
2023/08/15 09:04:21;;;;;;;2.50;1.50;;;;;;;46.31;26.87;99672.26;106605;1271;22527;-77
2023/08/15 09:06:50;;;;;;;4.60;1.50;;;;;;;46.64;26.37;99672.27;106310;1272;99312;-71
2023/08/15 09:09:19;;;;;;;4.50;1.60;;;;;;;47.17;26.15;99677.84;106702;1272;24218;-74
2023/08/15 09:11:50;;;;;;;1.60;1.40;;;;;;;46.86;24.64;99679.46;106469;1272;99253;-76
2023/08/15 09:14:18;;;;;;;2.60;1.40;;;;;;;46.20;24.54;99673.42;106262;1268;22535;-73
2023/08/15 09:16:50;;;;;;;2.10;1.40;;;;;;;46.00;24.14;99673.57;106559;1273;25233;-76
2023/08/15 09:19:22;;;;;;;2.40;1.50;;;;;;;45.50;24.05;99664.38;106847;1272;99173;-71
2023/08/15 09:21:52;;;;;;;1.50;1.30;;;;;;;46.26;24.41;99660.79;106381;1273;22765;-70
2023/08/15 09:24:27;;;;;;;2.20;1.40;;;;;;;47.92;24.35;99658.96;106589;1272;99262;-68
2023/08/15 09:26:56;;;;;;;2.00;1.70;;;;;;;49.49;23.88;99656.36;106558;1273;22683;-75
2023/08/15 09:29:26;;;;;;;2.50;1.70;;;;;;;50.22;22.69;99655.13;106395;1274;99690;-69
2023/08/15 09:31:58;;;;;;;3.00;2.00;;;;;;;50.46;21.85;99655.48;106466;1272;25300;-70
2023/08/15 09:34:27;;;;;;;2.40;2.20;;;;;;;50.43;20.80;99644.67;106653;1272;22521;-68
2023/08/15 09:36:57;;;;;;;2.30;2.10;;;;;;;50.99;20.91;99650.00;106455;1272;99325;-72
2023/08/15 09:39:27;;;;;;;2.90;2.70;;;;;;;51.67;20.47;99641.66;106532;1273;25247;-71
2023/08/15 09:41:57;;;;;;;3.80;3.10;;;;;;;52.32;20.11;99642.95;106187;1274;99308;-70
2023/08/15 09:44:34;;;;;;;3.30;3.10;;;;;;;52.00;18.72;99640.63;106519;1273;22625;-72
2023/08/15 09:47:04;;;;;;;3.90;3.60;;;;;;;51.54;18.44;99630.92;106559;1273;99478;-70
2023/08/15 09:49:36;;;;;;;5.70;4.00;;;;;;;51.96;18.92;99628.23;106357;1273;22723;-69
2023/08/15 09:52:10;;;;;;;4.10;3.90;;;;;;;52.79;18.49;99627.20;106569;1272;22541;-71
2023/08/15 09:54:41;;;;;;;4.70;4.30;;;;;;;53.18;18.43;99627.17;106564;1272;99299;-69
2023/08/15 09:57:16;;;;;;;5.30;4.80;;;;;;;53.47;17.41;99624.06;107704;1273;24175;-68
2023/08/15 09:59:45;;;;;;;6.00;5.60;;;;;;;52.97;16.01;99630.88;109936;1272;99706;-72
2023/08/15 10:02:21;;;;;;;5.50;5.20;;;;;;;52.30;15.31;99631.64;106732;1272;23593;-68
2023/08/15 10:05:06;;;;;;;6.00;5.60;;;;;;;51.60;15.08;99627.45;106454;1272;22530;-68
2023/08/15 10:07:36;;;;;;;7.40;5.40;;;;;;;50.97;15.39;99621.67;106335;1275;22540;-64
2023/08/15 10:10:08;;;;;;;4.90;4.60;;;;;;;51.01;15.28;99624.87;107137;1273;22583;-67
2023/08/15 10:12:40;;;;;;;;;;;;;;;51.39;15.65;99620.81;106371;1272;99336;-66
2023/08/15 10:15:12;;;;;;;6.80;6.40;;;;;;;52.53;15.68;99626.66;106646;1274;22557;-66
2023/08/15 10:17:53;;;;;;;6.70;6.20;;;;;;;53.15;15.54;99622.01;106602;1272;99273;-69
2023/08/15 10:20:23;;;;;;;8.00;7.40;;;;;;;53.89;15.10;99628.70;107164;1272;22618;-66
2023/08/15 10:23:07;;;;;;;8.70;8.00;;;;;;;53.47;14.04;99621.91;106980;1272;22673;-67
2023/08/15 10:25:52;;;;;;;8.90;8.20;;;;;;;52.74;13.49;99624.59;106420;1268;22604;-68
2023/08/15 10:28:36;;;;;;;8.60;8.10;;;;;;;52.83;13.60;99629.48;106723;1266;23003;-68
2023/08/15 10:31:08;;;;;;;9.20;8.60;;;;;;;53.39;13.34;99625.08;105590;1259;2015365;-70
2023/08/15 10:33:38;;;;;;;9.30;8.80;;;;;;;53.32;13.26;99626.98;106654;1272;22778;-69
2023/08/15 10:36:24;;;;;;;9.70;9.10;;;;;;;53.33;12.68;99632.10;106781;1272;99813;-65
2023/08/15 10:39:08;;;;;;;11.90;10.90;;;;;;;53.67;13.04;99627.08;106864;1273;22537;-68
2023/08/15 10:41:47;;;;;;;12.20;11.50;;;;;;;54.29;12.77;99631.45;106627;1272;99793;-66
2023/08/15 10:44:21;;;;;;;13.40;12.60;;;;;;;55.22;13.00;99630.11;106796;1272;22555;-69
2023/08/15 10:46:53;;;;;;;15.50;14.70;;;;;;;56.03;12.78;99630.04;106784;1273;22668;-70
2023/08/15 10:49:40;;;;;;;17.10;16.10;;;;;;;56.39;12.20;99635.29;107818;1272;22571;-71
2023/08/15 10:52:10;;;;;;;19.40;18.40;;;;;;;56.36;11.84;99640.15;106804;1273;22772;-75
2023/08/15 10:54:46;;;;;;;;;;;;;;;56.45;11.32;99633.52;106773;1272;100099;-75
2023/08/15 10:57:25;;;;;;;25.30;23.90;;;;;;;56.81;11.45;99632.68;106881;1273;22812;-73
2023/08/15 11:00:09;;;;;;;26.40;25.00;;;;;;;58.21;11.74;99628.05;106713;1270;100954;-75
2023/08/15 11:03:03;;;;;;;31.40;29.60;;;;;;;58.76;10.50;99629.23;106786;1272;22533;-78
2023/08/15 11:05:35;;;;;;;34.60;32.70;;;;;;;58.09;10.56;99621.70;106800;1273;99851;-70
2023/08/15 11:08:20;;;;;;;36.80;34.90;;;;;;;58.87;10.82;99619.99;106663;1272;23684;-71
2023/08/15 11:10:50;;;;;;;40.20;38.00;;;;;;;59.80;10.77;99619.39;106628;1272;24363;-71
2023/08/15 11:13:46;;;;;;;46.40;43.70;;;;;;;60.02;10.61;99619.23;106572;1273;100382;-71
2023/08/15 11:16:28;;;;;;;50.20;47.40;;;;;;;60.43;10.43;99621.83;107088;1273;23681;-65
2023/08/15 11:19:00;;;;;;;57.00;53.80;;;;;;;60.99;10.24;99621.08;106729;1272;100080;-70
2023/08/15 11:21:35;;;;;;;60.70;57.40;;;;;;;61.43;10.20;99623.81;107147;1273;22527;-71
2023/08/15 11:24:12;;;;;;;67.30;63.60;;;;;;;61.73;10.17;99625.27;106601;1273;99627;-72
2023/08/15 11:26:51;;;;;;;69.70;65.90;;;;;;;61.29;9.79;99619.52;107359;1257;22545;-68
2023/08/15 11:29:56;;;;;;;73.00;69.00;;;;;;;61.04;9.95;99613.55;106874;1272;100098;-74
2023/08/15 11:32:49;;;;;;;72.00;68.10;;;;;;;60.66;9.67;99609.34;107500;1272;268144;-69
2023/08/15 11:35:18;;;;;;;66.40;62.70;;;;;;;60.46;9.67;99606.02;109990;1273;99751;-60
2023/08/15 11:37:47;;;;;;;60.50;57.10;;;;;;;59.99;9.69;99603.47;107951;1265;24170;-61
2023/08/15 11:40:19;;;;;;;55.80;52.70;;;;;;;59.88;9.94;99607.30;106373;1272;22544;-60
2023/08/15 11:42:50;;;;;;;46.40;43.70;;;;;;;59.03;9.55;99605.60;106483;1269;99434;-63
2023/08/15 11:45:22;;;;;;;37.90;35.80;;;;;;;58.38;10.03;99609.73;106774;1272;26519;-62
2023/08/15 11:47:59;;;;;;;33.50;31.50;;;;;;;59.03;10.31;99608.45;107051;1272;100859;-62
2023/08/15 11:50:31;;;;;;;28.40;26.80;;;;;;;58.90;10.03;99599.42;106933;1260;24255;-62
2023/08/15 11:53:23;;;;;;;22.00;20.80;;;;;;;58.02;10.22;99604.80;106490;1273;100215;-62
2023/08/15 11:55:53;;;;;;;20.00;18.80;;;;;;;57.32;10.26;99600.40;106653;1272;25314;-62